sensor_id;sensor_type;location;lat;lon;timestamp;pressure;altitude;pressure_sealevel;temperature;humidity
64844;BME280;51310;52.198;5.422;2022-10-16T00:01:28;100695.97;;;11.12;100.00
64844;BME280;51310;52.198;5.422;2022-10-16T00:03:57;100687.50;;;11.13;100.00
64844;BME280;51310;52.198;5.422;2022-10-16T00:06:26;100681.84;;;11.17;100.00
64844;BME280;51310;52.198;5.422;2022-10-16T00:08:53;100688.06;;;11.19;100.00
64844;BME280;51310;52.198;5.422;2022-10-16T00:11:26;100688.06;;;11.19;100.00
64844;BME280;51310;52.198;5.422;2022-10-16T00:14:00;100696.81;;;11.21;100.00
64844;BME280;51310;52.198;5.422;2022-10-16T00:16:28;100691.53;;;11.19;100.00
64844;BME280;51310;52.198;5.422;2022-10-16T00:18:55;100700.78;;;11.17;100.00
64844;BME280;51310;52.198;5.422;2022-10-16T00:21:25;100702.47;;;11.17;100.00
64844;BME280;51310;52.198;5.422;2022-10-16T00:24:06;100698.97;;;11.16;100.00
64844;BME280;51310;52.198;5.422;2022-10-16T00:26:35;100705.78;;;11.16;100.00
64844;BME280;51310;52.198;5.422;2022-10-16T00:29:03;100700.47;;;11.14;100.00
64844;BME280;51310;52.198;5.422;2022-10-16T00:31:30;100706.41;;;11.13;100.00
64844;BME280;51310;52.198;5.422;2022-10-16T00:33:57;100700.38;;;11.13;100.00
64844;BME280;51310;52.198;5.422;2022-10-16T00:36:25;100693.53;;;11.13;100.00
64844;BME280;51310;52.198;5.422;2022-10-16T00:38:54;100683.50;;;11.16;100.00
64844;BME280;51310;52.198;5.422;2022-10-16T00:41:23;100688.66;;;11.16;100.00
64844;BME280;51310;52.198;5.422;2022-10-16T00:43:56;100692.00;;;11.15;100.00
64844;BME280;51310;52.198;5.422;2022-10-16T00:46:38;100678.50;;;11.18;100.00
64844;BME280;51310;52.198;5.422;2022-10-16T00:49:13;100690.00;;;11.21;100.00
64844;BME280;51310;52.198;5.422;2022-10-16T00:51:47;100692.56;;;11.21;100.00
64844;BME280;51310;52.198;5.422;2022-10-16T00:54:24;100686.00;;;11.25;100.00
64844;BME280;51310;52.198;5.422;2022-10-16T00:56:54;100684.78;;;11.30;100.00
64844;BME280;51310;52.198;5.422;2022-10-16T00:59:35;100684.91;;;11.32;100.00
64844;BME280;51310;52.198;5.422;2022-10-16T01:02:05;100691.41;;;11.37;100.00
64844;BME280;51310;52.198;5.422;2022-10-16T01:04:39;100687.56;;;11.42;100.00
64844;BME280;51310;52.198;5.422;2022-10-16T01:07:41;100687.84;;;11.45;100.00
64844;BME280;51310;52.198;5.422;2022-10-16T01:10:35;100698.19;;;11.55;100.00
64844;BME280;51310;52.198;5.422;2022-10-16T01:13:25;100694.63;;;11.63;100.00
64844;BME280;51310;52.198;5.422;2022-10-16T01:18:46;100705.28;;;11.77;100.00
64844;BME280;51310;52.198;5.422;2022-10-16T01:24:38;100687.03;;;11.84;100.00
64844;BME280;51310;52.198;5.422;2022-10-16T01:27:26;100688.19;;;11.87;100.00
64844;BME280;51310;52.198;5.422;2022-10-16T01:30:06;100693.28;;;11.96;100.00
64844;BME280;51310;52.198;5.422;2022-10-16T01:33:05;100698.44;;;11.96;100.00
64844;BME280;51310;52.198;5.422;2022-10-16T01:35:46;100693.28;;;11.96;100.00
64844;BME280;51310;52.198;5.422;2022-10-16T01:38:34;100690.94;;;11.89;100.00
64844;BME280;51310;52.198;5.422;2022-10-16T01:41:29;100695.03;;;11.87;100.00
64844;BME280;51310;52.198;5.422;2022-10-16T01:44:09;100699.47;;;11.88;100.00
64844;BME280;51310;52.198;5.422;2022-10-16T01:46:41;100695.81;;;11.86;100.00
64844;BME280;51310;52.198;5.422;2022-10-16T01:49:10;100695.81;;;11.86;100.00
64844;BME280;51310;52.198;5.422;2022-10-16T01:51:37;100697.59;;;11.87;100.00
64844;BME280;51310;52.198;5.422;2022-10-16T01:54:07;100699.59;;;11.89;100.00
64844;BME280;51310;52.198;5.422;2022-10-16T01:56:35;100687.63;;;11.90;100.00
64844;BME280;51310;52.198;5.422;2022-10-16T01:59:11;100688.63;;;11.92;100.00
64844;BME280;51310;52.198;5.422;2022-10-16T02:01:46;100653.72;;;11.96;100.00
64844;BME280;51310;52.198;5.422;2022-10-16T02:04:32;100649.59;;;11.98;100.00
64844;BME280;51310;52.198;5.422;2022-10-16T02:07:02;100655.09;;;11.92;100.00
64844;BME280;51310;52.198;5.422;2022-10-16T02:09:30;100667.31;;;11.84;100.00
64844;BME280;51310;52.198;5.422;2022-10-16T02:14:53;100680.44;;;11.87;100.00
64844;BME280;51310;52.198;5.422;2022-10-16T02:17:20;100681.88;;;11.84;100.00
64844;BME280;51310;52.198;5.422;2022-10-16T02:19:49;100679.91;;;11.81;100.00
64844;BME280;51310;52.198;5.422;2022-10-16T02:22:36;100685.06;;;11.81;100.00
64844;BME280;51310;52.198;5.422;2022-10-16T02:30:47;100708.91;;;11.79;100.00
64844;BME280;51310;52.198;5.422;2022-10-16T02:33:26;100708.88;;;11.68;100.00
64844;BME280;51310;52.198;5.422;2022-10-16T02:35:55;100703.28;;;11.64;100.00
64844;BME280;51310;52.198;5.422;2022-10-16T02:38:23;100698.50;;;11.58;100.00
64844;BME280;51310;52.198;5.422;2022-10-16T02:40:50;100702.69;;;11.47;100.00
64844;BME280;51310;52.198;5.422;2022-10-16T02:43:17;100708.94;;;11.41;100.00
64844;BME280;51310;52.198;5.422;2022-10-16T02:45:43;100718.22;;;11.39;100.00
64844;BME280;51310;52.198;5.422;2022-10-16T02:48:09;100722.47;;;11.38;100.00
64844;BME280;51310;52.198;5.422;2022-10-16T02:50:35;100721.94;;;11.42;100.00
64844;BME280;51310;52.198;5.422;2022-10-16T02:53:01;100725.56;;;11.44;100.00
64844;BME280;51310;52.198;5.422;2022-10-16T02:55:27;100721.47;;;11.46;100.00
64844;BME280;51310;52.198;5.422;2022-10-16T02:57:53;100723.94;;;11.45;100.00
64844;BME280;51310;52.198;5.422;2022-10-16T03:00:20;100721.47;;;11.46;100.00
64844;BME280;51310;52.198;5.422;2022-10-16T03:02:46;100712.34;;;11.50;100.00
64844;BME280;51310;52.198;5.422;2022-10-16T03:05:13;100715.41;;;11.46;100.00
64844;BME280;51310;52.198;5.422;2022-10-16T03:07:39;100716.59;;;11.49;100.00
64844;BME280;51310;52.198;5.422;2022-10-16T03:10:06;100717.50;;;11.50;100.00
64844;BME280;51310;52.198;5.422;2022-10-16T03:12:32;100711.56;;;11.51;100.00
64844;BME280;51310;52.198;5.422;2022-10-16T03:14:58;100714.16;;;11.51;100.00
64844;BME280;51310;52.198;5.422;2022-10-16T03:17:24;100702.19;;;11.52;100.00
64844;BME280;51310;52.198;5.422;2022-10-16T03:19:50;100701.91;;;11.48;100.00
64844;BME280;51310;52.198;5.422;2022-10-16T03:22:16;100703.41;;;11.46;100.00
64844;BME280;51310;52.198;5.422;2022-10-16T03:24:42;100708.94;;;11.41;100.00
64844;BME280;51310;52.198;5.422;2022-10-16T03:27:09;100714.72;;;11.38;100.00
64844;BME280;51310;52.198;5.422;2022-10-16T03:29:34;100730.69;;;11.34;100.00
64844;BME280;51310;52.198;5.422;2022-10-16T03:32:01;100726.13;;;11.32;100.00
64844;BME280;51310;52.198;5.422;2022-10-16T03:34:28;100729.06;;;11.26;100.00
64844;BME280;51310;52.198;5.422;2022-10-16T03:36:53;100723.06;;;11.17;100.00
64844;BME280;51310;52.198;5.422;2022-10-16T03:39:19;100720.97;;;11.13;100.00
64844;BME280;51310;52.198;5.422;2022-10-16T03:41:45;100725.81;;;11.09;100.00
64844;BME280;51310;52.198;5.422;2022-10-16T03:44:12;100728.28;;;11.08;100.00
64844;BME280;51310;52.198;5.422;2022-10-16T03:46:38;100734.75;;;11.13;100.00
64844;BME280;51310;52.198;5.422;2022-10-16T03:49:04;100747.06;;;11.07;100.00
64844;BME280;51310;52.198;5.422;2022-10-16T03:51:30;100739.19;;;11.05;100.00
64844;BME280;51310;52.198;5.422;2022-10-16T03:53:56;100741.16;;;11.08;100.00
64844;BME280;51310;52.198;5.422;2022-10-16T03:56:22;100739.75;;;11.12;100.00
64844;BME280;51310;52.198;5.422;2022-10-16T03:58:48;100741.28;;;11.09;100.00
64844;BME280;51310;52.198;5.422;2022-10-16T04:01:15;100743.44;;;11.05;100.00
64844;BME280;51310;52.198;5.422;2022-10-16T04:03:41;100746.44;;;11.09;100.00
64844;BME280;51310;52.198;5.422;2022-10-16T04:06:07;100742.81;;;11.07;100.00
64844;BME280;51310;52.198;5.422;2022-10-16T04:08:33;100751.94;;;11.04;100.00
64844;BME280;51310;52.198;5.422;2022-10-16T04:11:00;100750.09;;;11.03;100.00
64844;BME280;51310;52.198;5.422;2022-10-16T04:13:26;100749.38;;;11.04;100.00
64844;BME280;51310;52.198;5.422;2022-10-16T04:15:52;100752.50;;;11.10;100.00
64844;BME280;51310;52.198;5.422;2022-10-16T04:18:18;100758.69;;;11.12;100.00
64844;BME280;51310;52.198;5.422;2022-10-16T04:20:44;100763.84;;;11.12;100.00
64844;BME280;51310;52.198;5.422;2022-10-16T04:23:10;100779.16;;;11.11;100.00
64844;BME280;51310;52.198;5.422;2022-10-16T04:25:36;100775.06;;;11.13;100.00
64844;BME280;51310;52.198;5.422;2022-10-16T04:28:02;100775.34;;;11.16;100.00
64844;BME280;51310;52.198;5.422;2022-10-16T04:30:28;100776.13;;;11.15;100.00
64844;BME280;51310;52.198;5.422;2022-10-16T04:32:54;100777.75;;;11.14;100.00
64844;BME280;51310;52.198;5.422;2022-10-16T04:35:21;100784.44;;;11.12;100.00
64844;BME280;51310;52.198;5.422;2022-10-16T04:37:48;100792.16;;;11.12;100.00
64844;BME280;51310;52.198;5.422;2022-10-16T04:40:14;100791.56;;;11.15;100.00
64844;BME280;51310;52.198;5.422;2022-10-16T04:42:40;100797.91;;;11.18;100.00
64844;BME280;51310;52.198;5.422;2022-10-16T04:45:07;100796.72;;;11.15;100.00
64844;BME280;51310;52.198;5.422;2022-10-16T04:47:34;100798.88;;;11.10;100.00
64844;BME280;51310;52.198;5.422;2022-10-16T04:50:00;100795.38;;;11.09;100.00
64844;BME280;51310;52.198;5.422;2022-10-16T04:52:28;100808.56;;;11.13;100.00
64844;BME280;51310;52.198;5.422;2022-10-16T04:54:54;100801.88;;;11.15;100.00
64844;BME280;51310;52.198;5.422;2022-10-16T04:57:21;100808.66;;;11.14;100.00
64844;BME280;51310;52.198;5.422;2022-10-16T04:59:48;100814.91;;;11.07;100.00
64844;BME280;51310;52.198;5.422;2022-10-16T05:02:14;100818.91;;;11.04;100.00
64844;BME280;51310;52.198;5.422;2022-10-16T05:04:40;100822.56;;;10.97;100.00
64844;BME280;51310;52.198;5.422;2022-10-16T05:07:05;100818.78;;;10.94;100.00
64844;BME280;51310;52.198;5.422;2022-10-16T05:09:31;100825.19;;;10.88;100.00
64844;BME280;51310;52.198;5.422;2022-10-16T05:11:57;100826.69;;;10.86;100.00
64844;BME280;51310;52.198;5.422;2022-10-16T05:14:23;100825.19;;;10.88;100.00
64844;BME280;51310;52.198;5.422;2022-10-16T05:16:49;100835.75;;;10.92;100.00
64844;BME280;51310;52.198;5.422;2022-10-16T05:19:15;100839.53;;;10.95;100.00
64844;BME280;51310;52.198;5.422;2022-10-16T05:21:41;100843.91;;;10.96;100.00
64844;BME280;51310;52.198;5.422;2022-10-16T05:24:06;100839.06;;;10.99;100.00
64844;BME280;51310;52.198;5.422;2022-10-16T05:26:32;100846.47;;;10.96;100.00
64844;BME280;51310;52.198;5.422;2022-10-16T05:28:58;100853.75;;;11.00;100.00
64844;BME280;51310;52.198;5.422;2022-10-16T05:31:24;100855.69;;;11.03;100.00
64844;BME280;51310;52.198;5.422;2022-10-16T05:33:50;100851.16;;;11.00;100.00
64844;BME280;51310;52.198;5.422;2022-10-16T05:36:16;100858.59;;;11.06;100.00
64844;BME280;51310;52.198;5.422;2022-10-16T05:38:43;100867.22;;;11.06;100.00
64844;BME280;51310;52.198;5.422;2022-10-16T05:41:09;100868.72;;;11.04;100.00
64844;BME280;51310;52.198;5.422;2022-10-16T05:43:35;100876.47;;;11.04;100.00
64844;BME280;51310;52.198;5.422;2022-10-16T05:46:05;100881.75;;;11.06;100.00
64844;BME280;51310;52.198;5.422;2022-10-16T05:48:32;100881.47;;;11.03;100.00
64844;BME280;51310;52.198;5.422;2022-10-16T05:51:04;100894.19;;;11.01;100.00
64844;BME280;51310;52.198;5.422;2022-10-16T05:53:34;100889.50;;;11.06;100.00
64844;BME280;51310;52.198;5.422;2022-10-16T05:56:03;100892.34;;;11.09;100.00
64844;BME280;51310;52.198;5.422;2022-10-16T05:58:33;100902.19;;;11.13;100.00
64844;BME280;51310;52.198;5.422;2022-10-16T06:01:09;100902.47;;;11.16;100.00
64844;BME280;51310;52.198;5.422;2022-10-16T06:03:37;100904.28;;;11.17;100.00
64844;BME280;51310;52.198;5.422;2022-10-16T06:06:12;100907.63;;;11.16;100.00
64844;BME280;51310;52.198;5.422;2022-10-16T06:08:49;100924.44;;;11.21;100.00
64844;BME280;51310;52.198;5.422;2022-10-16T06:11:19;100919.56;;;11.24;100.00
64844;BME280;51310;52.198;5.422;2022-10-16T06:13:54;100913.78;;;11.27;100.00
64844;BME280;51310;52.198;5.422;2022-10-16T06:16:26;100921.81;;;11.30;100.00
64844;BME280;51310;52.198;5.422;2022-10-16T06:18:55;100926.19;;;11.31;100.00
64844;BME280;51310;52.198;5.422;2022-10-16T06:21:24;100929.56;;;11.30;100.00
64844;BME280;51310;52.198;5.422;2022-10-16T06:23:51;100931.22;;;11.29;100.00
64844;BME280;51310;52.198;5.422;2022-10-16T06:26:23;100927.41;;;11.35;100.00
64844;BME280;51310;52.198;5.422;2022-10-16T06:28:50;100946.34;;;11.35;100.00
64844;BME280;51310;52.198;5.422;2022-10-16T06:31:17;100946.06;;;11.32;100.00
64844;BME280;51310;52.198;5.422;2022-10-16T06:33:43;100956.81;;;11.37;100.00
64844;BME280;51310;52.198;5.422;2022-10-16T06:36:14;100961.19;;;11.38;100.00
64844;BME280;51310;52.198;5.422;2022-10-16T06:38:42;100938.00;;;11.38;100.00
64844;BME280;51310;52.198;5.422;2022-10-16T06:41:13;100936.03;;;11.35;100.00
64844;BME280;51310;52.198;5.422;2022-10-16T06:43:43;100946.97;;;11.33;100.00
64844;BME280;51310;52.198;5.422;2022-10-16T06:46:16;100945.00;;;11.30;100.00
64844;BME280;51310;52.198;5.422;2022-10-16T06:48:45;100955.16;;;11.28;100.00
64844;BME280;51310;52.198;5.422;2022-10-16T06:51:14;100962.75;;;11.27;100.00
64844;BME280;51310;52.198;5.422;2022-10-16T06:53:45;100960.31;;;11.28;100.00
64844;BME280;51310;52.198;5.422;2022-10-16T06:56:23;100968.31;;;11.32;100.00
64844;BME280;51310;52.198;5.422;2022-10-16T06:58:50;100962.28;;;11.31;100.00
64844;BME280;51310;52.198;5.422;2022-10-16T07:01:21;100962.44;;;11.33;100.00
64844;BME280;51310;52.198;5.422;2022-10-16T07:03:48;100965.44;;;11.37;100.00
64844;BME280;51310;52.198;5.422;2022-10-16T07:06:18;100966.66;;;11.41;100.00
64844;BME280;51310;52.198;5.422;2022-10-16T07:08:47;100965.13;;;11.43;100.00
64844;BME280;51310;52.198;5.422;2022-10-16T07:11:19;100970.88;;;11.49;100.00
64844;BME280;51310;52.198;5.422;2022-10-16T07:13:47;100979.78;;;11.53;100.00
64844;BME280;51310;52.198;5.422;2022-10-16T07:16:18;100979.47;;;11.58;100.00
64844;BME280;51310;52.198;5.422;2022-10-16T07:18:46;100994.16;;;11.59;100.00
64844;BME280;51310;52.198;5.422;2022-10-16T07:21:17;100995.38;;;11.63;100.00
64844;BME280;51310;52.198;5.422;2022-10-16T07:23:45;101002.47;;;11.65;100.00
64844;BME280;51310;52.198;5.422;2022-10-16T07:26:11;101005.63;;;11.72;100.00
64844;BME280;51310;52.198;5.422;2022-10-16T07:28:38;101007.91;;;11.77;100.00
64844;BME280;51310;52.198;5.422;2022-10-16T07:31:09;101010.13;;;11.83;100.00
64844;BME280;51310;52.198;5.422;2022-10-16T07:33:37;101030.28;;;11.87;100.00
64844;BME280;51310;52.198;5.422;2022-10-16T07:36:05;101017.84;;;11.92;100.00
64844;BME280;51310;52.198;5.422;2022-10-16T07:38:31;101021.66;;;11.95;100.00
64844;BME280;51310;52.198;5.422;2022-10-16T07:41:00;101032.59;;;11.93;100.00
64844;BME280;51310;52.198;5.422;2022-10-16T07:43:27;101041.38;;;11.86;100.00
64844;BME280;51310;52.198;5.422;2022-10-16T07:45:54;101044.44;;;11.82;100.00
64844;BME280;51310;52.198;5.422;2022-10-16T07:48:21;101046.44;;;11.76;100.00
64844;BME280;51310;52.198;5.422;2022-10-16T07:50:48;101057.22;;;11.72;100.00
64844;BME280;51310;52.198;5.422;2022-10-16T07:53:15;101069.03;;;11.69;100.00
64844;BME280;51310;52.198;5.422;2022-10-16T07:55:41;101080.13;;;11.68;100.00
64844;BME280;51310;52.198;5.422;2022-10-16T07:58:07;101086.50;;;11.63;100.00
64844;BME280;51310;52.198;5.422;2022-10-16T08:00:33;101083.63;;;11.60;100.00
64844;BME280;51310;52.198;5.422;2022-10-16T08:03:01;101076.50;;;11.66;100.00
64844;BME280;51310;52.198;5.422;2022-10-16T08:05:29;101086.47;;;11.72;100.00
64844;BME280;51310;52.198;5.422;2022-10-16T08:07:56;101084.63;;;11.80;100.00
64844;BME280;51310;52.198;5.422;2022-10-16T08:10:26;101090.50;;;11.87;100.00
64844;BME280;51310;52.198;5.422;2022-10-16T08:12:53;101089.59;;;11.96;100.00
64844;BME280;51310;52.198;5.422;2022-10-16T08:15:19;101100.66;;;12.03;100.00
64844;BME280;51310;52.198;5.422;2022-10-16T08:18:04;101101.72;;;12.05;100.00
64844;BME280;51310;52.198;5.422;2022-10-16T08:20:32;101096.84;;;12.08;100.00
64844;BME280;51310;52.198;5.422;2022-10-16T08:23:02;101108.59;;;12.24;100.00
64844;BME280;51310;52.198;5.422;2022-10-16T08:25:29;101110.97;;;12.40;100.00
64844;BME280;51310;52.198;5.422;2022-10-16T08:27:55;101109.25;;;12.49;100.00
64844;BME280;51310;52.198;5.422;2022-10-16T08:30:23;101109.56;;;12.43;100.00
64844;BME280;51310;52.198;5.422;2022-10-16T08:32:49;101113.69;;;12.41;100.00
64844;BME280;51310;52.198;5.422;2022-10-16T08:35:16;101116.22;;;12.50;100.00
64844;BME280;51310;52.198;5.422;2022-10-16T08:37:42;101113.78;;;12.51;100.00
64844;BME280;51310;52.198;5.422;2022-10-16T08:40:20;101126.78;;;12.62;100.00
64844;BME280;51310;52.198;5.422;2022-10-16T08:48:58;101135.09;;;12.87;100.00
64844;BME280;51310;52.198;5.422;2022-10-16T08:51:35;101149.31;;;13.01;100.00
64844;BME280;51310;52.198;5.422;2022-10-16T08:54:33;101148.03;;;13.06;100.00
64844;BME280;51310;52.198;5.422;2022-10-16T08:57:26;101149.88;;;13.07;100.00
64844;BME280;51310;52.198;5.422;2022-10-16T09:00:05;101150.63;;;13.25;100.00
64844;BME280;51310;52.198;5.422;2022-10-16T09:02:51;101159.63;;;13.28;100.00
64844;BME280;51310;52.198;5.422;2022-10-16T09:06:07;101168.94;;;13.37;100.00
64844;BME280;51310;52.198;5.422;2022-10-16T09:11:53;101180.97;;;13.36;100.00
64844;BME280;51310;52.198;5.422;2022-10-16T09:14:58;101186.63;;;13.51;100.00
64844;BME280;51310;52.198;5.422;2022-10-16T09:23:30;101189.63;;;13.74;100.00
64844;BME280;51310;52.198;5.422;2022-10-16T09:25:59;101195.59;;;13.84;100.00
64844;BME280;51310;52.198;5.422;2022-10-16T09:28:25;101206.00;;;13.94;100.00
64844;BME280;51310;52.198;5.422;2022-10-16T09:30:52;101201.44;;;14.21;100.00
64844;BME280;51310;52.198;5.422;2022-10-16T09:33:22;101211.94;;;14.22;100.00
64844;BME280;51310;52.198;5.422;2022-10-16T09:35:53;101207.47;;;14.40;100.00
64844;BME280;51310;52.198;5.422;2022-10-16T09:38:30;101210.88;;;14.49;100.00
64844;BME280;51310;52.198;5.422;2022-10-16T09:41:15;101213.25;;;14.56;100.00
64844;BME280;51310;52.198;5.422;2022-10-16T09:43:52;101211.72;;;14.40;100.00
64844;BME280;51310;52.198;5.422;2022-10-16T09:46:34;101225.81;;;14.62;100.00
64844;BME280;51310;52.198;5.422;2022-10-16T09:49:18;101221.78;;;14.55;100.00
64844;BME280;51310;52.198;5.422;2022-10-16T09:51:46;101218.19;;;14.74;100.00
64844;BME280;51310;52.198;5.422;2022-10-16T09:54:17;101217.81;;;14.90;99.99
64844;BME280;51310;52.198;5.422;2022-10-16T09:56:45;101234.94;;;15.08;98.70
64844;BME280;51310;52.198;5.422;2022-10-16T09:59:17;101219.09;;;15.05;97.97
64844;BME280;51310;52.198;5.422;2022-10-16T10:01:50;101231.16;;;15.46;96.71
64844;BME280;51310;52.198;5.422;2022-10-16T10:04:20;101231.44;;;15.38;96.27
64844;BME280;51310;52.198;5.422;2022-10-16T10:06:53;101242.69;;;15.39;95.75
64844;BME280;51310;52.198;5.422;2022-10-16T10:09:34;101238.81;;;15.34;94.43
64844;BME280;51310;52.198;5.422;2022-10-16T10:12:05;101240.38;;;15.22;94.57
64844;BME280;51310;52.198;5.422;2022-10-16T10:14:49;101239.97;;;15.37;95.10
64844;BME280;51310;52.198;5.422;2022-10-16T10:17:29;101238.31;;;15.38;93.27
64844;BME280;51310;52.198;5.422;2022-10-16T10:19:59;101247.63;;;15.26;93.92
64844;BME280;51310;52.198;5.422;2022-10-16T10:25:32;101239.22;;;15.38;93.52
64844;BME280;51310;52.198;5.422;2022-10-16T10:31:09;101258.25;;;15.39;93.91
64844;BME280;51310;52.198;5.422;2022-10-16T10:36:41;101264.72;;;15.65;92.01
64844;BME280;51310;52.198;5.422;2022-10-16T10:39:32;101259.44;;;15.53;91.76
64844;BME280;51310;52.198;5.422;2022-10-16T10:42:35;101269.03;;;15.54;90.64
64844;BME280;51310;52.198;5.422;2022-10-16T10:45:29;101268.09;;;15.74;90.30
64844;BME280;51310;52.198;5.422;2022-10-16T10:48:26;101274.06;;;15.52;89.09
64844;BME280;51310;52.198;5.422;2022-10-16T10:51:12;101274.59;;;15.48;86.42
64844;BME280;51310;52.198;5.422;2022-10-16T10:57:06;101278.91;;;15.27;88.13
64844;BME280;51310;52.198;5.422;2022-10-16T11:00:21;101282.50;;;15.09;89.49
64844;BME280;51310;52.198;5.422;2022-10-16T11:06:16;101286.91;;;15.00;91.86
64844;BME280;51310;52.198;5.422;2022-10-16T11:09:12;101292.25;;;15.22;90.86
64844;BME280;51310;52.198;5.422;2022-10-16T11:11:45;101293.16;;;15.43;88.07
64844;BME280;51310;52.198;5.422;2022-10-16T11:14:29;101297.41;;;15.93;88.13
64844;BME280;51310;52.198;5.422;2022-10-16T11:17:31;101301.09;;;16.17;82.84
64844;BME280;51310;52.198;5.422;2022-10-16T11:20:25;101288.97;;;16.28;81.33
64844;BME280;51310;52.198;5.422;2022-10-16T11:23:00;101300.38;;;15.98;81.93
64844;BME280;51310;52.198;5.422;2022-10-16T11:25:33;101303.06;;;16.10;82.72
64844;BME280;51310;52.198;5.422;2022-10-16T11:28:27;101309.00;;;16.19;80.07
64844;BME280;51310;52.198;5.422;2022-10-16T11:31:10;101308.28;;;16.10;79.34
64844;BME280;51310;52.198;5.422;2022-10-16T11:34:02;101315.31;;;15.90;80.63
64844;BME280;51310;52.198;5.422;2022-10-16T11:37:11;101313.91;;;15.84;81.41
64844;BME280;51310;52.198;5.422;2022-10-16T11:39:41;101312.22;;;15.84;82.38
64844;BME280;51310;52.198;5.422;2022-10-16T11:42:38;101311.72;;;15.78;82.19
64844;BME280;51310;52.198;5.422;2022-10-16T11:45:29;101315.72;;;15.64;82.79
64844;BME280;51310;52.198;5.422;2022-10-16T11:48:37;101310.78;;;15.57;83.70
64844;BME280;51310;52.198;5.422;2022-10-16T11:51:20;101313.13;;;15.54;85.05
64844;BME280;51310;52.198;5.422;2022-10-16T11:54:00;101321.94;;;15.76;84.23
64844;BME280;51310;52.198;5.422;2022-10-16T11:56:30;101320.75;;;15.93;80.55
64844;BME280;51310;52.198;5.422;2022-10-16T12:02:48;101329.06;;;15.89;79.01
64844;BME280;51310;52.198;5.422;2022-10-16T12:08:40;101329.72;;;15.76;77.71
64844;BME280;51310;52.198;5.422;2022-10-16T12:11:24;101320.25;;;15.87;76.10
64844;BME280;51310;52.198;5.422;2022-10-16T12:16:55;101331.66;;;15.99;73.59
64844;BME280;51310;52.198;5.422;2022-10-16T12:19:28;101332.84;;;15.93;73.16
64844;BME280;51310;52.198;5.422;2022-10-16T12:21:59;101339.16;;;16.07;72.38
64844;BME280;51310;52.198;5.422;2022-10-16T12:24:36;101344.50;;;16.08;72.29
64844;BME280;51310;52.198;5.422;2022-10-16T12:27:31;101344.09;;;16.14;73.69
64844;BME280;51310;52.198;5.422;2022-10-16T12:30:01;101339.72;;;16.03;75.58
64844;BME280;51310;52.198;5.422;2022-10-16T12:35:01;101354.66;;;15.95;76.97
64844;BME280;51310;52.198;5.422;2022-10-16T12:37:33;101350.13;;;15.92;78.32
64844;BME280;51310;52.198;5.422;2022-10-16T12:40:14;101353.59;;;15.93;78.89
64844;BME280;51310;52.198;5.422;2022-10-16T12:42:49;101350.06;;;16.13;79.16
64844;BME280;51310;52.198;5.422;2022-10-16T12:45:34;101355.88;;;16.31;76.25
64844;BME280;51310;52.198;5.422;2022-10-16T12:48:03;101352.97;;;16.48;75.49
64844;BME280;51310;52.198;5.422;2022-10-16T12:50:44;101354.72;;;16.59;74.28
64844;BME280;51310;52.198;5.422;2022-10-16T12:56:09;101351.63;;;16.53;75.76
64844;BME280;51310;52.198;5.422;2022-10-16T12:59:16;101356.63;;;16.72;73.56
64844;BME280;51310;52.198;5.422;2022-10-16T13:02:43;101357.16;;;16.68;74.80
64844;BME280;51310;52.198;5.422;2022-10-16T13:17:45;101359.75;;;16.68;70.36
64844;BME280;51310;52.198;5.422;2022-10-16T13:23:48;101376.94;;;16.56;70.18
64844;BME280;51310;52.198;5.422;2022-10-16T13:28:52;101380.72;;;16.59;70.49
64844;BME280;51310;52.198;5.422;2022-10-16T13:31:23;101384.06;;;16.69;70.46
64844;BME280;51310;52.198;5.422;2022-10-16T13:33:55;101387.31;;;16.66;68.88
64844;BME280;51310;52.198;5.422;2022-10-16T13:36:26;101388.22;;;16.67;66.74
64844;BME280;51310;52.198;5.422;2022-10-16T13:39:24;101386.00;;;16.71;68.59
64844;BME280;51310;52.198;5.422;2022-10-16T13:42:10;101394.88;;;16.63;68.05
64844;BME280;51310;52.198;5.422;2022-10-16T13:44:49;101397.94;;;16.69;67.06
64844;BME280;51310;52.198;5.422;2022-10-16T13:47:27;101401.94;;;16.76;67.38
64844;BME280;51310;52.198;5.422;2022-10-16T13:50:13;101395.56;;;16.50;68.67
64844;BME280;51310;52.198;5.422;2022-10-16T13:52:44;101393.59;;;16.58;69.24
64844;BME280;51310;52.198;5.422;2022-10-16T13:55:18;101393.31;;;16.65;69.95
64844;BME280;51310;52.198;5.422;2022-10-16T13:57:45;101390.81;;;16.67;69.79
64844;BME280;51310;52.198;5.422;2022-10-16T14:00:23;101393.69;;;16.70;69.00
64844;BME280;51310;52.198;5.422;2022-10-16T14:03:11;101398.97;;;16.71;69.03
64844;BME280;51310;52.198;5.422;2022-10-16T14:05:50;101406.16;;;16.74;66.40
64844;BME280;51310;52.198;5.422;2022-10-16T14:08:29;101409.66;;;16.74;65.13
64844;BME280;51310;52.198;5.422;2022-10-16T14:11:04;101412.16;;;16.63;65.47
64844;BME280;51310;52.198;5.422;2022-10-16T14:13:37;101409.53;;;16.63;66.43
64844;BME280;51310;52.198;5.422;2022-10-16T14:16:10;101409.97;;;16.57;67.88
64844;BME280;51310;52.198;5.422;2022-10-16T14:18:47;101415.69;;;16.53;68.60
64844;BME280;51310;52.198;5.422;2022-10-16T14:21:22;101398.63;;;16.56;68.97
64844;BME280;51310;52.198;5.422;2022-10-16T14:23:48;101401.34;;;16.68;69.95
64844;BME280;51310;52.198;5.422;2022-10-16T14:26:19;101399.41;;;16.66;70.73
64844;BME280;51310;52.198;5.422;2022-10-16T14:28:48;101397.06;;;16.69;72.22
64844;BME280;51310;52.198;5.422;2022-10-16T14:31:31;101394.06;;;16.74;71.24
64844;BME280;51310;52.198;5.422;2022-10-16T14:33:59;101393.44;;;16.56;71.30